Time,TemperatureF,DewpointF,PressureIn,WindDirection,WindDirectionDegrees,WindSpeedMPH,WindSpeedGustMPH,Humidity,HourlyPrecipIn,Conditions,Clouds,dailyrainin,SoftwareType,DateUTC
2013-01-10 00:02:00,56.0,53.0,30.34,NE,56,2.0,8.0,91,0.27,,,0.55,,2013-01-10 06:02:00,
2013-01-10 00:12:00,56.0,53.0,30.34,NE,56,2.0,8.0,91,0.27,,,0.55,,2013-01-10 06:12:00,
2013-01-10 00:22:00,55.0,52.0,30.33,ENE,77,2.0,5.0,91,0.26,,,0.59,,2013-01-10 06:22:00,
2013-01-10 00:32:00,55.0,52.0,30.33,ESE,102,5.0,9.0,91,0.22,,,0.62,,2013-01-10 06:32:00,
2013-01-10 00:42:00,55.0,52.0,30.33,ESE,102,5.0,9.0,91,0.22,,,0.62,,2013-01-10 06:42:00,
2013-01-10 00:52:00,54.0,52.0,30.32,ESE,110,5.0,10.0,92,0.14,,,0.65,,2013-01-10 06:52:00,
2013-01-10 01:02:00,54.0,52.0,30.32,East,86,6.0,9.0,92,0.10,,,0.65,,2013-01-10 07:02:00,
2013-01-10 01:12:00,54.0,52.0,30.32,East,86,6.0,9.0,92,0.10,,,0.65,,2013-01-10 07:12:00,
2013-01-10 01:22:00,54.0,52.0,30.31,East,88,7.0,11.0,92,0.05,,,0.65,,2013-01-10 07:22:00,
2013-01-10 01:32:00,54.0,52.0,30.31,East,86,7.0,11.0,92,0.02,,,0.65,,2013-01-10 07:32:00,
2013-01-10 01:42:00,54.0,52.0,30.31,East,86,7.0,11.0,92,0.02,,,0.65,,2013-01-10 07:42:00,
2013-01-10 01:52:00,54.0,52.0,30.31,East,93,5.0,9.0,92,0.00,,,0.65,,2013-01-10 07:52:00,
2013-01-10 02:02:00,55.0,53.0,30.31,East,97,5.0,10.0,92,0.01,,,0.66,,2013-01-10 08:02:00,
2013-01-10 02:12:00,55.0,53.0,30.31,East,97,5.0,10.0,92,0.01,,,0.66,,2013-01-10 08:12:00,
2013-01-10 02:22:00,55.0,53.0,30.30,ESE,106,6.0,10.0,92,0.01,,,0.66,,2013-01-10 08:22:00,
2013-01-10 02:32:00,55.0,53.0,30.29,ESE,118,8.0,13.0,92,0.02,,,0.67,,2013-01-10 08:32:00,
2013-01-10 02:42:00,55.0,53.0,30.29,ESE,118,8.0,13.0,92,0.02,,,0.67,,2013-01-10 08:42:00,
2013-01-10 02:52:00,55.0,53.0,30.29,ESE,112,7.0,11.0,92,0.02,,,0.67,,2013-01-10 08:52:00,
2013-01-10 03:02:00,55.0,53.0,30.28,ESE,108,6.0,10.0,92,0.01,,,0.67,,2013-01-10 09:02:00,
2013-01-10 03:12:00,55.0,53.0,30.28,ESE,108,6.0,10.0,92,0.01,,,0.67,,2013-01-10 09:12:00,
2013-01-10 03:22:00,55.0,53.0,30.28,ENE,76,7.0,11.0,92,0.01,,,0.67,,2013-01-10 09:22:00,
2013-01-10 03:32:00,55.0,53.0,30.27,East,95,6.0,11.0,92,0.00,,,0.66,,2013-01-10 09:32:00,
2013-01-10 03:42:00,55.0,53.0,30.27,East,95,6.0,11.0,92,0.00,,,0.66,,2013-01-10 09:42:00,
2013-01-10 03:52:00,55.0,53.0,30.27,ESE,103,4.0,8.0,92,0.00,,,0.66,,2013-01-10 09:52:00,
2013-01-10 04:03:00,55.0,53.0,30.26,ESE,115,4.0,8.0,93,0.00,,,0.65,,2013-01-10 10:03:00,
2013-01-10 04:12:00,55.0,53.0,30.26,ESE,115,4.0,8.0,93,0.00,,,0.65,,2013-01-10 10:12:00,
2013-01-10 04:22:00,55.0,53.0,30.24,ESE,112,5.0,9.0,93,0.00,,,0.64,,2013-01-10 10:22:00,
2013-01-10 04:32:00,55.0,53.0,30.23,East,99,8.0,15.0,93,0.00,,,0.63,,2013-01-10 10:32:00,
2013-01-10 04:42:00,55.0,53.0,30.23,East,99,8.0,15.0,93,0.00,,,0.63,,2013-01-10 10:42:00,
2013-01-10 04:52:00,55.0,53.0,30.23,ESE,116,9.0,14.0,93,0.00,,,0.63,,2013-01-10 10:52:00,
2013-01-10 05:02:00,56.0,54.0,30.23,ESE,123,6.0,9.0,93,0.00,,,0.62,,2013-01-10 11:02:00,
2013-01-10 05:12:00,56.0,54.0,30.23,ESE,123,6.0,9.0,93,0.00,,,0.62,,2013-01-10 11:12:00,
2013-01-10 05:22:00,56.0,54.0,30.22,ESE,122,7.0,12.0,93,0.00,,,0.60,,2013-01-10 11:22:00,
2013-01-10 05:32:00,56.0,54.0,30.22,SE,135,6.0,9.0,93,0.00,,,0.59,,2013-01-10 11:32:00,
2013-01-10 05:42:00,56.0,54.0,30.22,SE,135,6.0,9.0,93,0.00,,,0.59,,2013-01-10 11:42:00,
2013-01-10 05:52:00,56.0,54.0,30.22,ESE,120,5.0,8.0,93,0.00,,,0.59,,2013-01-10 11:52:00,
2013-01-10 06:02:00,56.0,54.0,30.22,ESE,106,4.0,7.0,93,0.00,,,0.59,,2013-01-10 12:02:00,
2013-01-10 06:12:00,56.0,54.0,30.22,ESE,106,4.0,7.0,93,0.00,,,0.59,,2013-01-10 12:12:00,
2013-01-10 06:22:00,56.0,54.0,30.22,ESE,120,4.0,7.0,93,0.00,,,0.56,,2013-01-10 12:22:00,
2013-01-10 06:32:00,57.0,55.0,30.21,ESE,122,4.0,7.0,93,0.00,,,0.56,,2013-01-10 12:32:00,
2013-01-10 06:42:00,57.0,55.0,30.21,ESE,122,4.0,7.0,93,0.00,,,0.56,,2013-01-10 12:42:00,
2013-01-10 06:52:00,57.0,55.0,30.21,SE,127,5.0,9.0,93,0.00,,,0.56,,2013-01-10 12:52:00,
2013-01-10 07:02:00,57.0,55.0,30.22,SE,146,5.0,9.0,93,0.00,,,0.55,,2013-01-10 13:02:00,
2013-01-10 07:12:00,57.0,55.0,30.22,SE,146,5.0,9.0,93,0.00,,,0.55,,2013-01-10 13:12:00,
2013-01-10 07:22:00,57.0,55.0,30.22,South,184,4.0,8.0,93,0.00,,,0.54,,2013-01-10 13:22:00,
2013-01-10 07:32:00,58.0,56.0,30.22,SSE,159,4.0,7.0,93,0.00,,,0.54,,2013-01-10 13:32:00,
2013-01-10 07:42:00,58.0,56.0,30.22,SSE,159,4.0,7.0,93,0.00,,,0.54,,2013-01-10 13:42:00,
2013-01-10 07:52:00,58.0,56.0,30.22,SE,131,4.0,8.0,93,0.01,,,0.55,,2013-01-10 13:52:00,
2013-01-10 08:02:00,58.0,56.0,30.23,SSE,156,3.0,7.0,93,0.01,,,0.55,,2013-01-10 14:02:00,
2013-01-10 08:12:00,58.0,56.0,30.23,SSE,156,3.0,7.0,93,0.01,,,0.55,,2013-01-10 14:12:00,
2013-01-10 08:22:00,58.0,56.0,30.24,South,176,3.0,6.0,94,0.01,,,0.55,,2013-01-10 14:22:00,
2013-01-10 08:32:00,58.0,56.0,30.24,SSE,158,2.0,5.0,94,0.01,,,0.55,,2013-01-10 14:32:00,
2013-01-10 08:43:00,58.0,56.0,30.24,SSE,158,2.0,5.0,94,0.01,,,0.55,,2013-01-10 14:43:00,
2013-01-10 08:53:00,59.0,57.0,30.23,SE,129,4.0,7.0,93,0.00,,,0.55,,2013-01-10 14:53:00,
2013-01-10 09:03:00,59.0,57.0,30.23,SSE,153,3.0,6.0,94,0.00,,,0.55,,2013-01-10 15:03:00,
2013-01-10 09:12:00,59.0,57.0,30.23,SSE,153,3.0,6.0,94,0.00,,,0.55,,2013-01-10 15:12:00,
2013-01-10 09:22:00,59.0,57.0,30.23,North,0,3.0,6.0,94,0.00,,,0.55,,2013-01-10 15:22:00,
2013-01-10 09:33:00,60.0,58.0,30.23,SSW,210,4.0,8.0,94,0.00,,,0.55,,2013-01-10 15:33:00,
2013-01-10 09:43:00,60.0,58.0,30.23,SSW,210,4.0,8.0,94,0.00,,,0.55,,2013-01-10 15:43:00,
2013-01-10 09:53:00,61.0,59.0,30.22,SSE,148,5.0,9.0,94,0.00,,,0.54,,2013-01-10 15:53:00,
2013-01-10 10:02:00,61.0,59.0,30.22,South,170,5.0,14.0,94,0.00,,,0.54,,2013-01-10 16:02:00,
2013-01-10 10:13:00,61.0,59.0,30.22,South,170,5.0,14.0,94,0.00,,,0.54,,2013-01-10 16:13:00,
2013-01-10 10:22:00,61.0,59.0,30.22,South,173,5.0,9.0,94,0.00,,,0.54,,2013-01-10 16:22:00,
2013-01-10 10:33:00,61.0,59.0,30.21,South,189,5.0,12.0,94,0.03,,,0.57,,2013-01-10 16:33:00,
2013-01-10 10:43:00,61.0,59.0,30.21,South,189,5.0,12.0,94,0.03,,,0.57,,2013-01-10 16:43:00,
2013-01-10 10:52:00,61.0,59.0,30.20,SSE,164,4.0,9.0,94,0.06,,,0.60,,2013-01-10 16:52:00,
2013-01-10 11:03:00,61.0,59.0,30.19,South,187,4.0,9.0,93,0.07,,,0.61,,2013-01-10 17:03:00,
2013-01-10 11:12:00,61.0,59.0,30.19,South,187,4.0,9.0,93,0.07,,,0.61,,2013-01-10 17:12:00,
2013-01-10 11:22:00,61.0,59.0,30.19,South,187,4.0,9.0,93,0.07,,,0.61,,2013-01-10 17:22:00,
2013-01-10 11:33:00,61.0,59.0,30.19,South,187,4.0,9.0,93,0.07,,,0.61,,2013-01-10 17:33:00,
2013-01-10 11:42:00,61.0,59.0,30.19,South,187,4.0,9.0,93,0.07,,,0.61,,2013-01-10 17:42:00,